sensor_id;sensor_type;location;lat;lon;timestamp;pressure;altitude;pressure_sealevel;temperature;humidity
33845;BME280;20145;43.118;25.694;2023-07-13T00:00:12;99404.50;;;26.75;67.39
33845;BME280;20145;43.118;25.694;2023-07-13T00:02:41;99406.53;;;26.71;68.14
33845;BME280;20145;43.118;25.694;2023-07-13T00:05:07;99410.91;;;26.61;69.45
33845;BME280;20145;43.118;25.694;2023-07-13T00:07:33;99408.13;;;26.51;69.56
33845;BME280;20145;43.118;25.694;2023-07-13T00:09:59;99403.38;;;26.43;69.74
33845;BME280;20145;43.118;25.694;2023-07-13T00:12:28;99398.56;;;26.37;68.57
33845;BME280;20145;43.118;25.694;2023-07-13T00:14:56;99401.34;;;26.24;70.02
33845;BME280;20145;43.118;25.694;2023-07-13T00:17:23;99387.63;;;26.08;70.31
33845;BME280;20145;43.118;25.694;2023-07-13T00:19:49;99399.72;;;25.99;71.26
33845;BME280;20145;43.118;25.694;2023-07-13T00:22:15;99388.16;;;25.89;72.31
33845;BME280;20145;43.118;25.694;2023-07-13T00:24:41;99389.13;;;25.88;70.58
33845;BME280;20145;43.118;25.694;2023-07-13T00:27:09;99391.28;;;25.83;72.92
33845;BME280;20145;43.118;25.694;2023-07-13T00:29:36;99385.22;;;25.81;73.10
33845;BME280;20145;43.118;25.694;2023-07-13T00:32:03;99384.00;;;25.74;72.61
33845;BME280;20145;43.118;25.694;2023-07-13T00:34:29;99377.59;;;25.65;73.97
33845;BME280;20145;43.118;25.694;2023-07-13T00:36:55;99379.97;;;25.57;73.72
33845;BME280;20145;43.118;25.694;2023-07-13T00:39:21;99370.94;;;25.48;72.76
33845;BME280;20145;43.118;25.694;2023-07-13T00:41:48;99359.88;;;25.43;73.76
33845;BME280;20145;43.118;25.694;2023-07-13T00:44:15;99366.00;;;25.44;72.88
33845;BME280;20145;43.118;25.694;2023-07-13T00:46:42;99365.75;;;25.47;72.19
33845;BME280;20145;43.118;25.694;2023-07-13T00:49:10;99370.84;;;25.50;70.96
33845;BME280;20145;43.118;25.694;2023-07-13T00:51:46;99361.13;;;25.50;70.34
33845;BME280;20145;43.118;25.694;2023-07-13T00:54:18;99355.50;;;25.66;70.08
33845;BME280;20145;43.118;25.694;2023-07-13T00:56:45;99368.78;;;25.77;69.66
33845;BME280;20145;43.118;25.694;2023-07-13T00:59:12;99374.47;;;25.84;68.74
33845;BME280;20145;43.118;25.694;2023-07-13T01:01:39;99369.53;;;25.91;68.31
33845;BME280;20145;43.118;25.694;2023-07-13T01:04:05;99369.94;;;25.97;68.38
33845;BME280;20145;43.118;25.694;2023-07-13T01:06:35;99367.53;;;26.06;68.67
33845;BME280;20145;43.118;25.694;2023-07-13T01:09:01;99372.69;;;26.07;69.93
33845;BME280;20145;43.118;25.694;2023-07-13T01:11:27;99367.78;;;26.02;69.63
33845;BME280;20145;43.118;25.694;2023-07-13T01:13:53;99378.69;;;25.98;70.89
33845;BME280;20145;43.118;25.694;2023-07-13T01:16:25;99365.94;;;25.92;70.53
33845;BME280;20145;43.118;25.694;2023-07-13T01:18:52;99375.44;;;25.94;71.41
33845;BME280;20145;43.118;25.694;2023-07-13T01:21:18;99377.34;;;25.92;71.82
33845;BME280;20145;43.118;25.694;2023-07-13T01:23:44;99380.09;;;25.91;72.31
33845;BME280;20145;43.118;25.694;2023-07-13T01:26:10;99378.53;;;25.88;71.86
33845;BME280;20145;43.118;25.694;2023-07-13T01:28:37;99371.72;;;25.86;71.63
33845;BME280;20145;43.118;25.694;2023-07-13T01:31:03;99372.31;;;25.89;71.72
33845;BME280;20145;43.118;25.694;2023-07-13T01:33:29;99380.25;;;25.89;68.88
33845;BME280;20145;43.118;25.694;2023-07-13T01:35:55;99372.06;;;25.92;70.41
33845;BME280;20145;43.118;25.694;2023-07-13T01:38:23;99363.16;;;25.93;70.32
33845;BME280;20145;43.118;25.694;2023-07-13T01:40:52;99379.78;;;25.95;71.72
33845;BME280;20145;43.118;25.694;2023-07-13T01:43:18;99380.50;;;25.97;71.99
33845;BME280;20145;43.118;25.694;2023-07-13T01:45:44;99376.03;;;25.87;74.07
33845;BME280;20145;43.118;25.694;2023-07-13T01:48:10;99378.25;;;25.80;74.45
33845;BME280;20145;43.118;25.694;2023-07-13T01:50:37;99382.56;;;25.70;76.02
33845;BME280;20145;43.118;25.694;2023-07-13T01:53:02;99373.75;;;25.58;75.51
33845;BME280;20145;43.118;25.694;2023-07-13T01:55:29;99372.16;;;25.44;74.36
33845;BME280;20145;43.118;25.694;2023-07-13T01:57:55;99376.50;;;25.32;74.01
33845;BME280;20145;43.118;25.694;2023-07-13T02:00:21;99382.47;;;25.23;74.34
33845;BME280;20145;43.118;25.694;2023-07-13T02:02:47;99385.22;;;25.22;74.79
33845;BME280;20145;43.118;25.694;2023-07-13T02:05:13;99388.41;;;25.14;75.58
33845;BME280;20145;43.118;25.694;2023-07-13T02:07:39;99374.78;;;25.07;76.60
33845;BME280;20145;43.118;25.694;2023-07-13T02:10:07;99384.00;;;25.02;74.36
33845;BME280;20145;43.118;25.694;2023-07-13T02:12:33;99375.47;;;24.98;75.64
33845;BME280;20145;43.118;25.694;2023-07-13T02:14:59;99375.28;;;24.88;75.12
33845;BME280;20145;43.118;25.694;2023-07-13T02:17:26;99384.28;;;24.86;76.39
33845;BME280;20145;43.118;25.694;2023-07-13T02:19:52;99387.56;;;24.77;74.84
33845;BME280;20145;43.118;25.694;2023-07-13T02:22:17;99377.97;;;24.63;74.53
33845;BME280;20145;43.118;25.694;2023-07-13T02:24:43;99384.97;;;24.64;75.88
33845;BME280;20145;43.118;25.694;2023-07-13T02:27:09;99389.94;;;24.56;76.44
33845;BME280;20145;43.118;25.694;2023-07-13T02:29:34;99383.59;;;24.58;77.89
33845;BME280;20145;43.118;25.694;2023-07-13T02:32:00;99388.75;;;24.73;77.25
33845;BME280;20145;43.118;25.694;2023-07-13T02:34:25;99391.59;;;24.69;76.09
33845;BME280;20145;43.118;25.694;2023-07-13T02:36:51;99388.84;;;24.71;76.73
33845;BME280;20145;43.118;25.694;2023-07-13T02:39:16;99382.44;;;24.62;75.70
33845;BME280;20145;43.118;25.694;2023-07-13T02:41:42;99386.03;;;24.61;75.65
33845;BME280;20145;43.118;25.694;2023-07-13T02:44:07;99395.41;;;24.65;76.01
33845;BME280;20145;43.118;25.694;2023-07-13T02:46:35;99389.50;;;24.62;75.47
33845;BME280;20145;43.118;25.694;2023-07-13T02:49:01;99393.19;;;24.59;75.51
33845;BME280;20145;43.118;25.694;2023-07-13T02:51:27;99389.06;;;24.55;76.84
33845;BME280;20145;43.118;25.694;2023-07-13T02:53:53;99395.84;;;24.59;74.80
33845;BME280;20145;43.118;25.694;2023-07-13T02:56:23;99391.31;;;24.61;76.21
33845;BME280;20145;43.118;25.694;2023-07-13T02:58:49;99386.25;;;24.58;77.34
33845;BME280;20145;43.118;25.694;2023-07-13T03:01:15;99399.94;;;24.63;75.27
33845;BME280;20145;43.118;25.694;2023-07-13T03:03:50;99400.22;;;24.71;75.63
33845;BME280;20145;43.118;25.694;2023-07-13T03:06:17;99394.25;;;24.69;75.60
33845;BME280;20145;43.118;25.694;2023-07-13T03:08:44;99394.63;;;24.76;75.71
33845;BME280;20145;43.118;25.694;2023-07-13T03:11:18;99393.19;;;24.72;74.07
33845;BME280;20145;43.118;25.694;2023-07-13T03:13:44;99399.19;;;24.74;75.65
33845;BME280;20145;43.118;25.694;2023-07-13T03:16:11;99395.38;;;24.78;75.45
33845;BME280;20145;43.118;25.694;2023-07-13T03:18:37;99402.94;;;24.83;75.15
33845;BME280;20145;43.118;25.694;2023-07-13T03:21:04;99389.13;;;24.79;75.88
33845;BME280;20145;43.118;25.694;2023-07-13T03:23:30;99397.47;;;24.86;75.07
33845;BME280;20145;43.118;25.694;2023-07-13T03:26:15;99392.81;;;24.89;75.08
33845;BME280;20145;43.118;25.694;2023-07-13T03:28:41;99402.53;;;24.89;75.25
33845;BME280;20145;43.118;25.694;2023-07-13T03:31:15;99404.22;;;24.90;75.04
33845;BME280;20145;43.118;25.694;2023-07-13T03:33:41;99403.44;;;25.01;75.82
33845;BME280;20145;43.118;25.694;2023-07-13T03:36:12;99396.16;;;25.04;75.57
33845;BME280;20145;43.118;25.694;2023-07-13T03:38:38;99391.06;;;25.14;74.94
33845;BME280;20145;43.118;25.694;2023-07-13T03:41:04;99390.72;;;25.19;74.63
33845;BME280;20145;43.118;25.694;2023-07-13T03:43:29;99389.22;;;25.27;74.39
33845;BME280;20145;43.118;25.694;2023-07-13T03:45:55;99394.81;;;25.47;75.32
33845;BME280;20145;43.118;25.694;2023-07-13T03:48:20;99402.94;;;25.56;74.26
33845;BME280;20145;43.118;25.694;2023-07-13T03:50:47;99400.00;;;25.72;74.83
33845;BME280;20145;43.118;25.694;2023-07-13T03:53:12;99396.66;;;25.81;73.70
33845;BME280;20145;43.118;25.694;2023-07-13T03:55:38;99400.09;;;25.95;74.39
33845;BME280;20145;43.118;25.694;2023-07-13T03:58:30;99401.31;;;26.13;74.38
33845;BME280;20145;43.118;25.694;2023-07-13T04:00:56;99402.06;;;26.38;72.63
33845;BME280;20145;43.118;25.694;2023-07-13T04:03:23;99406.69;;;26.58;72.08
33845;BME280;20145;43.118;25.694;2023-07-13T04:05:49;99401.72;;;26.87;72.84
33845;BME280;20145;43.118;25.694;2023-07-13T04:08:15;99406.84;;;27.11;70.68
33845;BME280;20145;43.118;25.694;2023-07-13T04:10:40;99413.72;;;27.25;70.74
33845;BME280;20145;43.118;25.694;2023-07-13T04:13:06;99406.34;;;27.29;71.47
33845;BME280;20145;43.118;25.694;2023-07-13T04:15:32;99398.66;;;27.14;71.44
33845;BME280;20145;43.118;25.694;2023-07-13T04:17:57;99414.34;;;27.18;71.63
33845;BME280;20145;43.118;25.694;2023-07-13T04:20:24;99409.47;;;27.34;70.42
33845;BME280;20145;43.118;25.694;2023-07-13T04:22:50;99410.16;;;27.79;71.09
33845;BME280;20145;43.118;25.694;2023-07-13T04:25:16;99416.31;;;28.22;69.77
33845;BME280;20145;43.118;25.694;2023-07-13T04:27:41;99406.13;;;28.48;69.40
33845;BME280;20145;43.118;25.694;2023-07-13T04:30:07;99408.75;;;28.79;68.45
33845;BME280;20145;43.118;25.694;2023-07-13T04:32:33;99404.44;;;28.87;68.94
33845;BME280;20145;43.118;25.694;2023-07-13T04:34:59;99411.03;;;28.93;68.37
33845;BME280;20145;43.118;25.694;2023-07-13T04:37:27;99399.56;;;28.92;68.08
33845;BME280;20145;43.118;25.694;2023-07-13T04:39:54;99404.03;;;28.92;69.96
33845;BME280;20145;43.118;25.694;2023-07-13T04:42:19;99417.41;;;29.11;68.61
33845;BME280;20145;43.118;25.694;2023-07-13T04:44:49;99412.00;;;29.42;67.14
33845;BME280;20145;43.118;25.694;2023-07-13T04:47:15;99421.94;;;29.79;66.69
33845;BME280;20145;43.118;25.694;2023-07-13T04:49:40;99425.00;;;30.04;66.89
33845;BME280;20145;43.118;25.694;2023-07-13T04:52:06;99432.84;;;30.25;65.28
33845;BME280;20145;43.118;25.694;2023-07-13T04:54:33;99424.81;;;30.44;65.61
33845;BME280;20145;43.118;25.694;2023-07-13T04:57:00;99425.88;;;30.61;64.38
33845;BME280;20145;43.118;25.694;2023-07-13T04:59:26;99423.72;;;30.74;61.28
33845;BME280;20145;43.118;25.694;2023-07-13T05:01:52;99431.50;;;30.58;62.87
33845;BME280;20145;43.118;25.694;2023-07-13T05:04:18;99437.47;;;30.13;62.57
33845;BME280;20145;43.118;25.694;2023-07-13T05:06:43;99449.28;;;29.71;63.07
33845;BME280;20145;43.118;25.694;2023-07-13T05:09:09;99429.50;;;29.35;64.62
33845;BME280;20145;43.118;25.694;2023-07-13T05:11:34;99443.53;;;29.06;66.46
33845;BME280;20145;43.118;25.694;2023-07-13T05:14:00;99434.84;;;28.64;66.40
33845;BME280;20145;43.118;25.694;2023-07-13T05:16:27;99436.91;;;28.30;67.27
33845;BME280;20145;43.118;25.694;2023-07-13T05:18:53;99427.84;;;28.11;68.13
33845;BME280;20145;43.118;25.694;2023-07-13T05:21:19;99446.22;;;28.24;67.86
33845;BME280;20145;43.118;25.694;2023-07-13T05:23:45;99427.69;;;28.34;67.23
33845;BME280;20145;43.118;25.694;2023-07-13T05:26:11;99428.00;;;28.61;66.62
33845;BME280;20145;43.118;25.694;2023-07-13T05:28:37;99458.66;;;29.06;65.90
33845;BME280;20145;43.118;25.694;2023-07-13T05:31:04;99455.31;;;29.13;64.76
33845;BME280;20145;43.118;25.694;2023-07-13T05:33:30;99445.69;;;29.22;65.25
33845;BME280;20145;43.118;25.694;2023-07-13T05:35:56;99450.16;;;29.22;65.26
33845;BME280;20145;43.118;25.694;2023-07-13T05:38:21;99450.75;;;29.45;64.79
33845;BME280;20145;43.118;25.694;2023-07-13T05:40:47;99435.22;;;29.60;64.57
33845;BME280;20145;43.118;25.694;2023-07-13T05:43:13;99448.41;;;29.90;63.77
33845;BME280;20145;43.118;25.694;2023-07-13T05:45:39;99441.25;;;30.10;62.60
33845;BME280;20145;43.118;25.694;2023-07-13T05:48:05;99442.66;;;30.24;61.74
33845;BME280;20145;43.118;25.694;2023-07-13T05:50:31;99448.44;;;30.57;61.55
33845;BME280;20145;43.118;25.694;2023-07-13T05:52:57;99438.00;;;30.73;61.02
33845;BME280;20145;43.118;25.694;2023-07-13T05:55:22;99455.66;;;31.11;61.58
33845;BME280;20145;43.118;25.694;2023-07-13T05:57:48;99454.06;;;31.46;60.42
33845;BME280;20145;43.118;25.694;2023-07-13T06:00:14;99449.94;;;31.70;57.58
33845;BME280;20145;43.118;25.694;2023-07-13T06:02:40;99449.94;;;31.88;56.01
33845;BME280;20145;43.118;25.694;2023-07-13T06:05:06;99453.34;;;32.16;54.60
33845;BME280;20145;43.118;25.694;2023-07-13T06:07:31;99460.41;;;32.25;50.93
33845;BME280;20145;43.118;25.694;2023-07-13T06:09:57;99454.09;;;32.26;55.30
33845;BME280;20145;43.118;25.694;2023-07-13T06:12:25;99463.22;;;32.41;54.89
33845;BME280;20145;43.118;25.694;2023-07-13T06:14:50;99464.03;;;32.42;54.67
33845;BME280;20145;43.118;25.694;2023-07-13T06:17:16;99465.81;;;32.51;54.27
33845;BME280;20145;43.118;25.694;2023-07-13T06:19:42;99470.06;;;32.70;52.11
33845;BME280;20145;43.118;25.694;2023-07-13T06:22:07;99475.78;;;32.75;49.76
33845;BME280;20145;43.118;25.694;2023-07-13T06:24:33;99464.81;;;32.86;49.83
33845;BME280;20145;43.118;25.694;2023-07-13T06:26:59;99473.53;;;32.97;48.29
33845;BME280;20145;43.118;25.694;2023-07-13T06:29:24;99458.75;;;33.10;45.31
33845;BME280;20145;43.118;25.694;2023-07-13T06:31:50;99475.19;;;33.24;43.88
33845;BME280;20145;43.118;25.694;2023-07-13T06:34:15;99472.88;;;33.37;43.13
33845;BME280;20145;43.118;25.694;2023-07-13T06:36:41;99483.97;;;33.59;44.47
33845;BME280;20145;43.118;25.694;2023-07-13T06:39:07;99478.28;;;33.62;45.58
33845;BME280;20145;43.118;25.694;2023-07-13T06:41:33;99474.72;;;33.45;49.01
33845;BME280;20145;43.118;25.694;2023-07-13T06:43:59;99479.03;;;33.29;50.12
33845;BME280;20145;43.118;25.694;2023-07-13T06:46:25;99476.19;;;33.31;50.68
33845;BME280;20145;43.118;25.694;2023-07-13T06:48:51;99473.88;;;33.44;50.79
33845;BME280;20145;43.118;25.694;2023-07-13T06:51:17;99485.47;;;33.61;50.94
33845;BME280;20145;43.118;25.694;2023-07-13T06:53:42;99484.16;;;33.57;51.06
33845;BME280;20145;43.118;25.694;2023-07-13T06:56:10;99480.94;;;33.45;49.34
33845;BME280;20145;43.118;25.694;2023-07-13T06:58:36;99484.25;;;33.47;50.24
33845;BME280;20145;43.118;25.694;2023-07-13T07:01:03;99483.09;;;33.50;50.19
33845;BME280;20145;43.118;25.694;2023-07-13T07:03:29;99475.56;;;33.37;50.10
33845;BME280;20145;43.118;25.694;2023-07-13T07:06:00;99482.06;;;33.35;50.87
33845;BME280;20145;43.118;25.694;2023-07-13T07:08:25;99472.69;;;33.39;50.22
33845;BME280;20145;43.118;25.694;2023-07-13T07:10:51;99476.53;;;33.36;49.89
33845;BME280;20145;43.118;25.694;2023-07-13T07:13:19;99473.84;;;33.28;50.92
33845;BME280;20145;43.118;25.694;2023-07-13T07:15:45;99469.69;;;33.42;51.42
33845;BME280;20145;43.118;25.694;2023-07-13T07:18:11;99458.38;;;33.64;50.62
33845;BME280;20145;43.118;25.694;2023-07-13T07:20:36;99484.84;;;33.84;49.60
33845;BME280;20145;43.118;25.694;2023-07-13T07:23:02;99481.84;;;33.79;48.72
33845;BME280;20145;43.118;25.694;2023-07-13T07:25:27;99480.50;;;33.83;49.94
33845;BME280;20145;43.118;25.694;2023-07-13T07:27:57;99473.63;;;33.96;48.46
33845;BME280;20145;43.118;25.694;2023-07-13T07:30:23;99478.31;;;33.94;50.14
33845;BME280;20145;43.118;25.694;2023-07-13T07:32:48;99470.81;;;33.98;47.21
33845;BME280;20145;43.118;25.694;2023-07-13T07:35:14;99476.66;;;34.02;46.49
33845;BME280;20145;43.118;25.694;2023-07-13T07:37:40;99477.03;;;34.07;47.79
33845;BME280;20145;43.118;25.694;2023-07-13T07:40:06;99464.94;;;34.19;48.31
33845;BME280;20145;43.118;25.694;2023-07-13T07:42:32;99462.94;;;34.21;47.72
33845;BME280;20145;43.118;25.694;2023-07-13T07:44:57;99474.13;;;34.33;47.90
33845;BME280;20145;43.118;25.694;2023-07-13T07:47:23;99475.47;;;34.45;48.58
33845;BME280;20145;43.118;25.694;2023-07-13T07:49:49;99474.78;;;34.51;48.18
33845;BME280;20145;43.118;25.694;2023-07-13T07:52:15;99476.13;;;34.39;45.56
33845;BME280;20145;43.118;25.694;2023-07-13T07:54:40;99475.63;;;34.43;46.03
33845;BME280;20145;43.118;25.694;2023-07-13T07:57:06;99466.72;;;34.51;46.64
33845;BME280;20145;43.118;25.694;2023-07-13T07:59:33;99462.22;;;34.60;46.22
33845;BME280;20145;43.118;25.694;2023-07-13T08:01:58;99464.69;;;34.70;45.40
33845;BME280;20145;43.118;25.694;2023-07-13T08:04:24;99472.16;;;34.91;46.03
33845;BME280;20145;43.118;25.694;2023-07-13T08:06:50;99469.91;;;35.02;47.54
33845;BME280;20145;43.118;25.694;2023-07-13T08:09:15;99468.41;;;35.00;46.96
33845;BME280;20145;43.118;25.694;2023-07-13T08:11:41;99471.09;;;35.00;45.16
33845;BME280;20145;43.118;25.694;2023-07-13T08:14:06;99462.41;;;34.98;42.76
33845;BME280;20145;43.118;25.694;2023-07-13T08:16:32;99464.06;;;35.07;41.67
33845;BME280;20145;43.118;25.694;2023-07-13T08:18:58;99449.13;;;35.04;42.66
33845;BME280;20145;43.118;25.694;2023-07-13T08:21:23;99474.28;;;35.12;41.78
33845;BME280;20145;43.118;25.694;2023-07-13T08:23:49;99472.59;;;35.02;42.62
33845;BME280;20145;43.118;25.694;2023-07-13T08:26:14;99460.56;;;35.06;42.70
33845;BME280;20145;43.118;25.694;2023-07-13T08:28:41;99463.16;;;35.23;43.10
33845;BME280;20145;43.118;25.694;2023-07-13T08:31:07;99467.47;;;35.32;44.34
33845;BME280;20145;43.118;25.694;2023-07-13T08:33:35;99466.56;;;35.40;43.57
33845;BME280;20145;43.118;25.694;2023-07-13T08:36:02;99472.19;;;35.53;43.96
33845;BME280;20145;43.118;25.694;2023-07-13T08:38:27;99464.78;;;35.55;43.65
33845;BME280;20145;43.118;25.694;2023-07-13T08:40:55;99472.81;;;35.63;41.17
33845;BME280;20145;43.118;25.694;2023-07-13T08:43:30;99479.97;;;35.71;43.02
33845;BME280;20145;43.118;25.694;2023-07-13T08:48:36;99473.00;;;35.62;40.32
33845;BME280;20145;43.118;25.694;2023-07-13T08:53:48;99465.13;;;35.60;41.29
33845;BME280;20145;43.118;25.694;2023-07-13T08:56:20;99465.06;;;35.68;40.22
33845;BME280;20145;43.118;25.694;2023-07-13T08:58:49;99441.25;;;35.65;38.13
33845;BME280;20145;43.118;25.694;2023-07-13T09:01:33;99450.84;;;35.83;37.65
33845;BME280;20145;43.118;25.694;2023-07-13T09:04:09;99449.13;;;35.90;37.06
33845;BME280;20145;43.118;25.694;2023-07-13T09:18:08;99442.47;;;36.01;40.73
33845;BME280;20145;43.118;25.694;2023-07-13T09:20:42;99409.50;;;35.92;38.11
33845;BME280;20145;43.118;25.694;2023-07-13T09:23:15;99437.06;;;36.24;38.30
33845;BME280;20145;43.118;25.694;2023-07-13T09:25:45;99433.84;;;36.28;37.46
33845;BME280;20145;43.118;25.694;2023-07-13T09:28:18;99432.06;;;36.21;36.53
33845;BME280;20145;43.118;25.694;2023-07-13T09:30:54;99433.84;;;36.28;36.37
33845;BME280;20145;43.118;25.694;2023-07-13T09:33:21;99426.78;;;36.27;38.49
33845;BME280;20145;43.118;25.694;2023-07-13T09:35:48;99429.88;;;36.39;39.47
33845;BME280;20145;43.118;25.694;2023-07-13T09:38:19;99426.59;;;36.44;40.09
33845;BME280;20145;43.118;25.694;2023-07-13T09:44:11;99429.13;;;36.45;35.76
33845;BME280;20145;43.118;25.694;2023-07-13T09:46:40;99438.84;;;36.46;35.65
33845;BME280;20145;43.118;25.694;2023-07-13T09:49:10;99426.81;;;36.42;36.22
33845;BME280;20145;43.118;25.694;2023-07-13T09:51:43;99411.13;;;36.31;36.22
33845;BME280;20145;43.118;25.694;2023-07-13T09:54:20;99427.00;;;36.55;34.92
33845;BME280;20145;43.118;25.694;2023-07-13T09:56:46;99427.94;;;36.62;34.60
33845;BME280;20145;43.118;25.694;2023-07-13T09:59:20;99426.63;;;36.73;35.96
33845;BME280;20145;43.118;25.694;2023-07-13T10:01:46;99419.47;;;36.80;36.42
33845;BME280;20145;43.118;25.694;2023-07-13T10:04:17;99414.19;;;36.87;35.38
33845;BME280;20145;43.118;25.694;2023-07-13T10:06:44;99409.56;;;36.81;35.59
33845;BME280;20145;43.118;25.694;2023-07-13T10:09:14;99412.16;;;36.74;37.69
33845;BME280;20145;43.118;25.694;2023-07-13T10:11:40;99429.00;;;36.83;33.54
33845;BME280;20145;43.118;25.694;2023-07-13T10:14:14;99423.94;;;36.73;32.16
33845;BME280;20145;43.118;25.694;2023-07-13T10:16:41;99430.81;;;36.76;31.69
33845;BME280;20145;43.118;25.694;2023-07-13T10:19:18;99430.97;;;36.89;33.14
33845;BME280;20145;43.118;25.694;2023-07-13T10:24:25;99423.97;;;37.10;32.87
33845;BME280;20145;43.118;25.694;2023-07-13T10:27:00;99420.53;;;37.16;33.33
33845;BME280;20145;43.118;25.694;2023-07-13T10:29:35;99419.75;;;37.22;31.76
33845;BME280;20145;43.118;25.694;2023-07-13T10:32:01;99410.94;;;37.28;32.88
33845;BME280;20145;43.118;25.694;2023-07-13T10:34:28;99405.56;;;37.28;32.72
33845;BME280;20145;43.118;25.694;2023-07-13T10:36:54;99402.28;;;37.33;35.80
33845;BME280;20145;43.118;25.694;2023-07-13T10:39:22;99405.28;;;37.23;36.77
33845;BME280;20145;43.118;25.694;2023-07-13T10:42:03;99397.34;;;37.15;36.44
33845;BME280;20145;43.118;25.694;2023-07-13T10:44:32;99391.53;;;37.11;36.94
33845;BME280;20145;43.118;25.694;2023-07-13T10:47:11;99395.91;;;37.19;36.68
33845;BME280;20145;43.118;25.694;2023-07-13T10:49:39;99389.84;;;37.32;37.11
33845;BME280;20145;43.118;25.694;2023-07-13T10:52:43;99405.63;;;37.35;33.15
33845;BME280;20145;43.118;25.694;2023-07-13T10:58:20;99407.28;;;37.36;35.91
33845;BME280;20145;43.118;25.694;2023-07-13T11:00:49;99403.59;;;37.22;34.13
33845;BME280;20145;43.118;25.694;2023-07-13T11:03:19;99405.47;;;37.21;35.51
33845;BME280;20145;43.118;25.694;2023-07-13T11:05:49;99407.00;;;36.94;36.79
33845;BME280;20145;43.118;25.694;2023-07-13T11:08:33;99415.34;;;36.99;36.22
33845;BME280;20145;43.118;25.694;2023-07-13T11:11:02;99411.75;;;37.07;36.25
33845;BME280;20145;43.118;25.694;2023-07-13T11:18:47;99399.59;;;37.11;36.09
33845;BME280;20145;43.118;25.694;2023-07-13T11:21:21;99406.31;;;37.22;34.23
33845;BME280;20145;43.118;25.694;2023-07-13T11:24:22;99397.34;;;37.15;35.90
33845;BME280;20145;43.118;25.694;2023-07-13T11:29:36;99390.47;;;37.12;37.15
33845;BME280;20145;43.118;25.694;2023-07-13T11:32:23;99391.63;;;37.24;36.68
33845;BME280;20145;43.118;25.694;2023-07-13T11:34:53;99379.38;;;37.22;36.57
33845;BME280;20145;43.118;25.694;2023-07-13T11:37:21;99370.44;;;37.15;34.10
33845;BME280;20145;43.118;25.694;2023-07-13T11:39:51;99382.88;;;37.37;33.95
33845;BME280;20145;43.118;25.694;2023-07-13T11:42:18;99369.66;;;37.42;33.25
33845;BME280;20145;43.118;25.694;2023-07-13T11:44:49;99369.06;;;37.47;34.09
33845;BME280;20145;43.118;25.694;2023-07-13T11:47:21;99381.16;;;37.51;32.38
33845;BME280;20145;43.118;25.694;2023-07-13T11:49:52;99376.31;;;37.46;32.20
33845;BME280;20145;43.118;25.694;2023-07-13T11:52:23;99368.59;;;37.58;31.66
33845;BME280;20145;43.118;25.694;2023-07-13T11:54:54;99372.38;;;37.64;32.51
33845;BME280;20145;43.118;25.694;2023-07-13T12:00:13;99352.34;;;37.73;30.92
33845;BME280;20145;43.118;25.694;2023-07-13T12:02:45;99360.66;;;37.78;31.96
33845;BME280;20145;43.118;25.694;2023-07-13T12:05:15;99313.31;;;37.62;31.42
33845;BME280;20145;43.118;25.694;2023-07-13T12:07:44;99340.63;;;37.87;33.60
33845;BME280;20145;43.118;25.694;2023-07-13T12:12:56;99335.09;;;37.67;33.79
33845;BME280;20145;43.118;25.694;2023-07-13T12:15:23;99327.31;;;37.51;35.02
33845;BME280;20145;43.118;25.694;2023-07-13T12:17:50;99324.66;;;37.58;35.18
33845;BME280;20145;43.118;25.694;2023-07-13T12:20:33;99316.34;;;37.53;32.62
33845;BME280;20145;43.118;25.694;2023-07-13T12:23:00;99307.91;;;37.62;33.53
33845;BME280;20145;43.118;25.694;2023-07-13T12:25:28;99317.72;;;37.70;32.90
33845;BME280;20145;43.118;25.694;2023-07-13T12:27:54;99305.88;;;37.64;33.94
33845;BME280;20145;43.118;25.694;2023-07-13T12:30:28;99312.34;;;37.77;31.80
33845;BME280;20145;43.118;25.694;2023-07-13T12:33:11;99312.59;;;37.82;31.79
33845;BME280;20145;43.118;25.694;2023-07-13T12:35:47;99301.94;;;37.95;32.51
33845;BME280;20145;43.118;25.694;2023-07-13T12:38:16;99288.06;;;37.98;30.93
33845;BME280;20145;43.118;25.694;2023-07-13T12:40:42;99291.19;;;38.02;31.34
33845;BME280;20145;43.118;25.694;2023-07-13T12:43:14;99289.97;;;38.04;32.80
33845;BME280;20145;43.118;25.694;2023-07-13T12:48:21;99280.41;;;38.02;31.65
33845;BME280;20145;43.118;25.694;2023-07-13T12:50:48;99271.06;;;37.98;30.92
33845;BME280;20145;43.118;25.694;2023-07-13T12:53:48;99278.19;;;38.12;31.54
33845;BME280;20145;43.118;25.694;2023-07-13T12:56:23;99279.25;;;38.17;31.75
33845;BME280;20145;43.118;25.694;2023-07-13T12:58:50;99277.78;;;38.15;32.20
33845;BME280;20145;43.118;25.694;2023-07-13T13:01:21;99244.56;;;38.01;32.62
33845;BME280;20145;43.118;25.694;2023-07-13T13:03:52;99271.97;;;38.11;31.36
33845;BME280;20145;43.118;25.694;2023-07-13T13:08:45;99264.72;;;38.19;32.40
33845;BME280;20145;43.118;25.694;2023-07-13T13:11:11;99259.31;;;38.12;30.72
33845;BME280;20145;43.118;25.694;2023-07-13T13:13:36;99260.63;;;38.23;31.26
33845;BME280;20145;43.118;25.694;2023-07-13T13:16:20;99255.19;;;38.16;33.60
33845;BME280;20145;43.118;25.694;2023-07-13T13:18:48;99255.81;;;38.18;31.61
33845;BME280;20145;43.118;25.694;2023-07-13T13:21:14;99258.91;;;38.15;32.16
33845;BME280;20145;43.118;25.694;2023-07-13T13:23:41;99256.22;;;38.15;32.32
33845;BME280;20145;43.118;25.694;2023-07-13T13:26:10;99248.31;;;38.13;32.10
33845;BME280;20145;43.118;25.694;2023-07-13T13:28:36;99263.25;;;38.09;32.42
33845;BME280;20145;43.118;25.694;2023-07-13T13:31:02;99250.75;;;38.02;33.53
33845;BME280;20145;43.118;25.694;2023-07-13T13:33:28;99265.69;;;37.98;31.60
33845;BME280;20145;43.118;25.694;2023-07-13T13:35:53;99273.78;;;38.04;32.99
33845;BME280;20145;43.118;25.694;2023-07-13T13:38:27;99264.88;;;38.04;32.58